Time;durP1;ratioP1;P1;durP2;ratioP2;P2;SDS_P1;SDS_P2;PMS_P1;PMS_P2;Temp;Humidity;BMP_temperature;BMP_pressure;BME280_temperature;BME280_humidity;BME280_pressure;Samples;Min_cycle;Max_cycle;Signal;HPM_P1;HPM_P2
2022/12/24 00:01:25;;;;;;;97.40;62.50;;;;;;;;;;6217019;23;20439;-66
2022/12/24 00:03:52;;;;;;;96.10;61.50;;;;;;;;;;6216959;23;20442;-66
2022/12/24 00:06:19;;;;;;;104.90;63.83;;;;;;;;;;6215889;23;20008;-66
2022/12/24 00:08:45;;;;;;;94.47;60.80;;;;;;;;;;6215087;23;20083;-67
2022/12/24 00:11:12;;;;;;;103.37;64.83;;;;;;;;;;6214705;23;20430;-66
2022/12/24 00:13:38;;;;;;;94.83;61.33;;;;;;;;;;6215661;23;20001;-66
2022/12/24 00:16:04;;;;;;;106.57;66.50;;;;;;;;;;6216761;23;20437;-67
2022/12/24 00:18:30;;;;;;;98.77;62.97;;;;;;;;;;6216226;23;20005;-66
2022/12/24 00:20:56;;;;;;;102.73;63.63;;;;;;;;;;6216604;23;20316;-67
2022/12/24 00:23:23;;;;;;;106.20;68.10;;;;;;;;;;6215924;23;20024;-67
2022/12/24 00:25:49;;;;;;;98.93;63.07;;;;;;;;;;6188936;23;20016;-66
2022/12/24 00:28:15;;;;;;;93.97;61.73;;;;;;;;;;6215233;23;20000;-66
2022/12/24 00:30:42;;;;;;;97.53;62.93;;;;;;;;;;6216767;23;20076;-66
2022/12/24 00:33:08;;;;;;;98.97;63.00;;;;;;;;;;6216644;23;20055;-67
2022/12/24 00:35:34;;;;;;;100.20;64.80;;;;;;;;;;6216881;23;20004;-66
2022/12/24 00:38:02;;;;;;;95.93;61.90;;;;;;;;;;6217172;23;20042;-66
2022/12/24 00:40:29;;;;;;;91.43;61.17;;;;;;;;;;6217135;23;20433;-66
2022/12/24 00:42:55;;;;;;;96.73;62.67;;;;;;;;;;6216506;23;20001;-67
2022/12/24 00:45:22;;;;;;;90.80;60.00;;;;;;;;;;6216347;23;20078;-67
2022/12/24 00:48:12;;;;;;;91.50;60.10;;;;;;;;;;6214966;23;20064;-67
2022/12/24 01:00:41;;;;;;;92.90;59.57;;;;;;;;;;5981046;23;20023;-66
2022/12/24 01:03:37;;;;;;;88.37;56.73;;;;;;;;;;5980012;23;20016;-66
2022/12/24 01:06:35;;;;;;;86.07;53.57;;;;;;;;;;6067030;23;20413;-66
2022/12/24 01:09:01;;;;;;;83.33;53.50;;;;;;;;;;6066820;23;20094;-66
2022/12/24 01:14:47;;;;;;;76.73;48.53;;;;;;;;;;6065008;23;20069;-66
2022/12/24 01:17:13;;;;;;;84.13;50.30;;;;;;;;;;6071311;23;20319;-67
2022/12/24 01:19:39;;;;;;;81.07;50.43;;;;;;;;;;6173526;23;20333;-67
2022/12/24 01:22:06;;;;;;;79.90;52.17;;;;;;;;;;6216319;23;20316;-66
2022/12/24 01:24:32;;;;;;;81.47;52.97;;;;;;;;;;6216109;23;20359;-67
2022/12/24 01:26:58;;;;;;;81.10;51.13;;;;;;;;;;6214733;23;20025;-66
2022/12/24 01:29:24;;;;;;;77.17;49.93;;;;;;;;;;6215783;23;20052;-67
2022/12/24 01:31:50;;;;;;;80.13;47.60;;;;;;;;;;6215703;23;20309;-66
2022/12/24 01:34:16;;;;;;;76.53;47.83;;;;;;;;;;6215722;23;20095;-67
2022/12/24 01:36:43;;;;;;;78.30;50.60;;;;;;;;;;6215614;23;20356;-66
2022/12/24 01:39:09;;;;;;;83.13;52.50;;;;;;;;;;6215148;23;20005;-66
2022/12/24 01:44:21;;;;;;;70.63;45.93;;;;;;;;;;6215643;23;20027;-67
2022/12/24 01:46:49;;;;;;;79.07;48.90;;;;;;;;;;6215924;23;20000;-66
2022/12/24 01:49:15;;;;;;;77.00;50.00;;;;;;;;;;6215387;23;20565;-66
2022/12/24 01:51:50;;;;;;;76.53;49.73;;;;;;;;;;6215485;23;20024;-65
2022/12/24 01:54:16;;;;;;;79.53;49.20;;;;;;;;;;6215029;23;20330;-66
2022/12/24 01:56:51;;;;;;;88.83;51.60;;;;;;;;;;6214946;23;20402;-66
2022/12/24 01:59:18;;;;;;;78.17;50.33;;;;;;;;;;6212154;23;20443;-66
2022/12/24 02:01:45;;;;;;;82.67;50.63;;;;;;;;;;6212066;23;20384;-66
2022/12/24 02:04:20;;;;;;;81.97;51.40;;;;;;;;;;6212731;23;20001;-68
2022/12/24 02:06:46;;;;;;;86.07;51.17;;;;;;;;;;6214864;23;20004;-66
2022/12/24 02:09:14;;;;;;;81.03;51.47;;;;;;;;;;6214978;23;20457;-66
2022/12/24 02:11:42;;;;;;;79.20;52.37;;;;;;;;;;6215329;23;20016;-66
2022/12/24 02:14:08;;;;;;;78.97;51.40;;;;;;;;;;6188278;23;20481;-66
2022/12/24 02:17:10;;;;;;;74.40;51.80;;;;;;;;;;6215096;23;20009;-67
2022/12/24 02:19:51;;;;;;;79.60;52.93;;;;;;;;;;6152084;23;20061;-66
2022/12/24 02:22:23;;;;;;;81.80;52.40;;;;;;;;;;6208880;23;20023;-67
2022/12/24 02:24:52;;;;;;;78.45;53.47;;;;;;;;;;6215774;23;20059;-66
2022/12/24 02:27:37;;;;;;;83.20;54.03;;;;;;;;;;6215935;23;20015;-69
2022/12/24 02:30:09;;;;;;;80.03;52.27;;;;;;;;;;6214975;23;20413;-66
2022/12/24 02:32:35;;;;;;;82.10;49.27;;;;;;;;;;6215667;23;20020;-68
2022/12/24 02:35:18;;;;;;;76.33;49.87;;;;;;;;;;6214675;23;20008;-66
2022/12/24 02:37:56;;;;;;;71.60;47.00;;;;;;;;;;6214527;23;20019;-68
2022/12/24 02:41:10;;;;;;;77.33;47.23;;;;;;;;;;6187904;23;20012;-67
2022/12/24 02:46:55;;;;;;;77.73;49.20;;;;;;;;;;6064571;23;20011;-67
2022/12/24 02:49:30;;;;;;;71.33;46.27;;;;;;;;;;6204294;23;20012;-67
2022/12/24 02:52:19;;;;;;;75.67;45.83;;;;;;;;;;6214968;23;20046;-67
2022/12/24 02:55:11;;;;;;;70.67;44.33;;;;;;;;;;6203984;23;20373;-66
2022/12/24 03:01:15;;;;;;;69.30;43.33;;;;;;;;;;6214932;23;20043;-68
2022/12/24 03:06:51;;;;;;;72.60;44.65;;;;;;;;;;6123793;23;20008;-66
2022/12/24 03:09:21;;;;;;;67.70;42.80;;;;;;;;;;6181142;23;20342;-66
2022/12/24 03:12:05;;;;;;;67.30;43.93;;;;;;;;;;6213627;23;20004;-66
2022/12/24 03:14:33;;;;;;;75.77;46.70;;;;;;;;;;6215120;23;20330;-66
2022/12/24 03:17:02;;;;;;;74.77;47.77;;;;;;;;;;6214739;23;20335;-66
2022/12/24 03:19:28;;;;;;;79.80;52.70;;;;;;;;;;6215175;23;20335;-67
2022/12/24 03:21:56;;;;;;;82.03;53.47;;;;;;;;;;6214973;23;20015;-65
2022/12/24 03:24:22;;;;;;;93.93;55.90;;;;;;;;;;6215149;23;20001;-65
2022/12/24 03:26:49;;;;;;;83.23;52.53;;;;;;;;;;6215268;23;20067;-65
2022/12/24 03:29:16;;;;;;;85.97;52.80;;;;;;;;;;6215141;23;20028;-66
2022/12/24 03:31:46;;;;;;;83.27;54.47;;;;;;;;;;6215252;23;20072;-66
2022/12/24 03:34:13;;;;;;;89.77;54.50;;;;;;;;;;6214893;23;20419;-66
2022/12/24 03:36:40;;;;;;;80.87;52.50;;;;;;;;;;6214649;23;20434;-65
2022/12/24 03:39:06;;;;;;;82.10;52.87;;;;;;;;;;6215145;23;20377;-67
2022/12/24 03:41:32;;;;;;;84.13;55.33;;;;;;;;;;6214777;23;20432;-66
2022/12/24 03:43:58;;;;;;;81.87;53.30;;;;;;;;;;6215145;23;20054;-67
2022/12/24 03:46:24;;;;;;;85.93;52.73;;;;;;;;;;6215165;23;20447;-67
2022/12/24 03:48:50;;;;;;;83.53;51.50;;;;;;;;;;6214938;23;20083;-67
2022/12/24 03:51:23;;;;;;;79.37;50.40;;;;;;;;;;6214776;23;20364;-67
2022/12/24 03:53:51;;;;;;;78.47;51.13;;;;;;;;;;6215176;23;20428;-66
2022/12/24 03:56:17;;;;;;;76.03;50.33;;;;;;;;;;6215158;23;20012;-66
2022/12/24 03:58:43;;;;;;;79.20;48.33;;;;;;;;;;6215049;23;20362;-66
2022/12/24 04:01:10;;;;;;;78.83;48.40;;;;;;;;;;6214826;23;20089;-67
2022/12/24 04:03:36;;;;;;;73.90;48.10;;;;;;;;;;6215250;23;20380;-67
2022/12/24 04:06:03;;;;;;;77.43;48.30;;;;;;;;;;6216866;23;20000;-66
2022/12/24 04:08:30;;;;;;;78.63;50.63;;;;;;;;;;6216776;23;20051;-67
2022/12/24 04:10:56;;;;;;;78.80;50.23;;;;;;;;;;6216775;23;20067;-66
2022/12/24 04:13:22;;;;;;;70.93;47.47;;;;;;;;;;6216779;23;20008;-66
2022/12/24 04:16:01;;;;;;;78.10;49.80;;;;;;;;;;6216935;23;20445;-67
2022/12/24 04:18:27;;;;;;;75.87;49.00;;;;;;;;;;6216506;23;20076;-67
2022/12/24 04:20:53;;;;;;;72.80;47.67;;;;;;;;;;6190524;23;20016;-66
2022/12/24 04:23:20;;;;;;;74.07;47.20;;;;;;;;;;6190648;23;20005;-67
2022/12/24 04:25:46;;;;;;;72.27;45.10;;;;;;;;;;6217553;23;20032;-66
2022/12/24 04:28:13;;;;;;;66.10;44.43;;;;;;;;;;6217354;23;19996;-67
2022/12/24 04:30:52;;;;;;;;;;;;;;;;;;;;;
2022/12/24 04:58:39;;;;;;;65.67;38.50;;;;;;;;;;6153070;23;20436;-67
2022/12/24 05:01:06;;;;;;;59.80;38.43;;;;;;;;;;6182163;23;20460;-66
2022/12/24 05:03:32;;;;;;;62.90;39.17;;;;;;;;;;6186463;23;20332;-66
2022/12/24 05:06:02;;;;;;;62.53;37.97;;;;;;;;;;6186264;23;20471;-66
2022/12/24 05:08:28;;;;;;;60.03;37.03;;;;;;;;;;6186192;23;20016;-68
2022/12/24 05:10:55;;;;;;;61.73;36.20;;;;;;;;;;6186103;23;20001;-66
2022/12/24 05:13:21;;;;;;;58.80;35.87;;;;;;;;;;6186459;23;20012;-66
2022/12/24 05:15:47;;;;;;;60.87;38.47;;;;;;;;;;6186083;23;20360;-67
2022/12/24 05:18:13;;;;;;;57.20;35.80;;;;;;;;;;6186507;23;20005;-67
2022/12/24 05:20:43;;;;;;;54.83;35.40;;;;;;;;;;6185766;23;20060;-68
2022/12/24 05:26:22;;;;;;;49.90;32.90;;;;;;;;;;6185797;23;20339;-66
2022/12/24 05:28:52;;;;;;;62.17;35.53;;;;;;;;;;6185864;23;20380;-66
2022/12/24 05:31:19;;;;;;;54.30;33.67;;;;;;;;;;6185988;23;20416;-66
2022/12/24 05:33:45;;;;;;;59.50;34.57;;;;;;;;;;6159724;23;20088;-66
2022/12/24 05:36:11;;;;;;;56.20;33.43;;;;;;;;;;6185930;23;20423;-66
2022/12/24 05:38:38;;;;;;;54.37;33.33;;;;;;;;;;6185732;23;20451;-66
2022/12/24 05:41:04;;;;;;;52.17;32.60;;;;;;;;;;6185435;23;20427;-66
2022/12/24 05:43:31;;;;;;;58.03;37.27;;;;;;;;;;6185745;23;19997;-66
2022/12/24 05:45:58;;;;;;;58.17;37.73;;;;;;;;;;6185793;23;20081;-66
2022/12/24 05:48:24;;;;;;;61.47;39.13;;;;;;;;;;6185865;23;20424;-67
2022/12/24 05:50:50;;;;;;;72.10;41.17;;;;;;;;;;6185489;23;20012;-67
2022/12/24 05:53:16;;;;;;;68.77;41.97;;;;;;;;;;6165290;23;20346;-67
2022/12/24 05:55:42;;;;;;;64.83;42.47;;;;;;;;;;6215386;23;20127;-67
2022/12/24 05:58:08;;;;;;;69.97;43.20;;;;;;;;;;6215422;23;20005;-67
2022/12/24 06:00:35;;;;;;;64.37;41.63;;;;;;;;;;6215179;23;20019;-67
2022/12/24 06:03:01;;;;;;;66.10;42.53;;;;;;;;;;6215786;23;20027;-67
2022/12/24 06:05:27;;;;;;;72.37;42.73;;;;;;;;;;6215639;23;20068;-67
2022/12/24 06:07:53;;;;;;;67.60;42.50;;;;;;;;;;6215875;23;20011;-68
2022/12/24 06:10:19;;;;;;;63.63;42.33;;;;;;;;;;6216492;23;20008;-67
2022/12/24 06:12:45;;;;;;;66.10;41.17;;;;;;;;;;6216350;23;20058;-68
2022/12/24 06:15:12;;;;;;;70.20;44.20;;;;;;;;;;6239864;23;20104;-68
2022/12/24 06:17:38;;;;;;;68.07;42.97;;;;;;;;;;6239551;23;20087;-67
2022/12/24 06:20:05;;;;;;;68.40;42.30;;;;;;;;;;6215817;23;20011;-68
2022/12/24 06:25:50;;;;;;;69.33;44.33;;;;;;;;;;6207453;23;20091;-67
2022/12/24 06:28:42;;;;;;;70.97;43.57;;;;;;;;;;6214730;23;20005;-67
2022/12/24 06:31:11;;;;;;;71.57;43.67;;;;;;;;;;6204202;23;20355;-66
2022/12/24 06:33:37;;;;;;;66.50;44.23;;;;;;;;;;6216149;23;20054;-66
2022/12/24 06:36:06;;;;;;;67.40;42.83;;;;;;;;;;6215930;23;20075;-66
2022/12/24 06:38:32;;;;;;;67.40;43.27;;;;;;;;;;6215699;23;20007;-67
2022/12/24 06:40:58;;;;;;;76.93;45.63;;;;;;;;;;6215910;23;20374;-67
2022/12/24 06:43:57;;;;;;;69.93;45.93;;;;;;;;;;6214945;23;20359;-68
2022/12/24 06:49:37;;;;;;;72.43;45.70;;;;;;;;;;6215432;23;20075;-68
2022/12/24 06:52:04;;;;;;;68.83;46.00;;;;;;;;;;6214743;23;20379;-67
2022/12/24 06:54:30;;;;;;;71.57;45.70;;;;;;;;;;6215269;23;20316;-68
2022/12/24 06:56:57;;;;;;;76.60;48.70;;;;;;;;;;6215694;23;20335;-68
2022/12/24 06:59:23;;;;;;;76.93;48.47;;;;;;;;;;6215579;23;20374;-67
2022/12/24 07:01:49;;;;;;;75.83;49.30;;;;;;;;;;6215087;23;20012;-68
2022/12/24 07:04:15;;;;;;;81.03;49.50;;;;;;;;;;6215157;23;20028;-68
2022/12/24 07:06:41;;;;;;;79.57;48.93;;;;;;;;;;6188460;23;20051;-68
2022/12/24 07:09:10;;;;;;;89.63;55.03;;;;;;;;;;6215376;23;20327;-68
2022/12/24 07:11:36;;;;;;;91.57;52.17;;;;;;;;;;6215199;23;20300;-68
2022/12/24 07:14:02;;;;;;;93.50;52.33;;;;;;;;;;6188558;23;20393;-68
2022/12/24 07:16:28;;;;;;;88.77;52.73;;;;;;;;;;6215154;23;20009;-67
2022/12/24 07:18:55;;;;;;;90.10;51.70;;;;;;;;;;6215257;23;20007;-67
2022/12/24 07:21:21;;;;;;;76.60;49.33;;;;;;;;;;6215302;23;20427;-67
2022/12/24 07:23:47;;;;;;;74.50;45.50;;;;;;;;;;6215270;23;20024;-68
2022/12/24 07:26:13;;;;;;;69.27;39.17;;;;;;;;;;6215978;23;20503;-67
2022/12/24 07:28:39;;;;;;;60.33;37.63;;;;;;;;;;6215272;23;19997;-67
2022/12/24 07:31:05;;;;;;;67.57;39.13;;;;;;;;;;6215172;23;20447;-68
2022/12/24 07:33:31;;;;;;;60.53;39.23;;;;;;;;;;6215243;23;20001;-68
2022/12/24 07:36:01;;;;;;;60.07;36.67;;;;;;;;;;6215141;23;20325;-67
2022/12/24 08:10:03;;;;;;;56.93;36.13;;;;;;;;;;6222320;23;20239;-67
2022/12/24 08:12:29;;;;;;;60.77;37.93;;;;;;;;;;6223280;23;20311;-67
2022/12/24 08:14:56;;;;;;;57.67;36.77;;;;;;;;;;6223149;23;20004;-67
2022/12/24 08:17:22;;;;;;;60.13;38.23;;;;;;;;;;6223869;23;20354;-67
2022/12/24 08:19:48;;;;;;;55.63;35.77;;;;;;;;;;6222762;23;20016;-69
2022/12/24 08:22:15;;;;;;;61.27;36.63;;;;;;;;;;6223781;23;20359;-66
2022/12/24 08:24:41;;;;;;;62.53;36.77;;;;;;;;;;6223728;23;20023;-69
2022/12/24 08:27:07;;;;;;;60.20;36.83;;;;;;;;;;6222399;23;20376;-69
2022/12/24 08:29:33;;;;;;;57.63;35.00;;;;;;;;;;6223393;23;20323;-69
2022/12/24 08:31:59;;;;;;;56.97;35.93;;;;;;;;;;6223358;23;20012;-69
2022/12/24 08:34:26;;;;;;;55.03;35.63;;;;;;;;;;6223370;23;20407;-68
2022/12/24 08:36:52;;;;;;;58.80;37.40;;;;;;;;;;6223591;23;20009;-67
2022/12/24 08:39:18;;;;;;;62.13;38.40;;;;;;;;;;6223137;23;20016;-66
2022/12/24 08:41:44;;;;;;;67.77;41.23;;;;;;;;;;6223702;23;20533;-66
2022/12/24 08:44:10;;;;;;;67.27;40.83;;;;;;;;;;6223662;23;20008;-66
2022/12/24 08:46:36;;;;;;;62.63;38.87;;;;;;;;;;6224005;23;19996;-66
2022/12/24 08:49:02;;;;;;;60.23;39.40;;;;;;;;;;6223544;23;20472;-66
2022/12/24 08:51:28;;;;;;;64.23;42.40;;;;;;;;;;6218455;23;20008;-66
2022/12/24 08:53:54;;;;;;;71.27;43.33;;;;;;;;;;6216965;23;20008;-66
2022/12/24 08:56:20;;;;;;;68.07;43.17;;;;;;;;;;6216993;23;20007;-66
2022/12/24 08:58:47;;;;;;;75.93;47.13;;;;;;;;;;6215247;23;20004;-66
2022/12/24 09:01:17;;;;;;;74.97;45.30;;;;;;;;;;6216587;23;20083;-66
2022/12/24 09:03:43;;;;;;;79.67;46.27;;;;;;;;;;6216997;23;20001;-66
2022/12/24 09:06:10;;;;;;;77.80;46.67;;;;;;;;;;6215062;23;20027;-66
2022/12/24 09:08:36;;;;;;;68.97;43.63;;;;;;;;;;6216801;23;20430;-66
2022/12/24 09:11:06;;;;;;;70.17;43.97;;;;;;;;;;6216652;23;20461;-66
2022/12/24 09:13:33;;;;;;;71.40;43.60;;;;;;;;;;6216710;23;20027;-66
2022/12/24 09:15:59;;;;;;;68.17;43.27;;;;;;;;;;6217175;23;20047;-66
2022/12/24 09:18:25;;;;;;;69.37;42.53;;;;;;;;;;6217668;23;20035;-66
2022/12/24 09:20:51;;;;;;;66.47;41.57;;;;;;;;;;6217713;23;20351;-67
2022/12/24 09:23:17;;;;;;;66.37;40.23;;;;;;;;;;6217530;23;20000;-66
2022/12/24 09:25:44;;;;;;;65.60;39.57;;;;;;;;;;6217062;23;20004;-66
2022/12/24 09:28:12;;;;;;;67.20;40.33;;;;;;;;;;6217535;23;19997;-66
2022/12/24 09:30:51;;;;;;;60.30;38.47;;;;;;;;;;6215618;23;20009;-67
2022/12/24 09:46:06;;;;;;;60.83;39.13;;;;;;;;;;6154767;23;20140;-66
2022/12/24 09:52:18;;;;;;;;;;;;;;;;;;6095957;23;20497;-67
2022/12/24 10:00:35;;;;;;;65.63;40.87;;;;;;;;;;6037766;23;20060;-66
2022/12/24 10:03:01;;;;;;;61.73;40.67;;;;;;;;;;6143055;23;20338;-66
2022/12/24 10:05:41;;;;;;;59.97;39.43;;;8.70;99.90;;;;;;6216445;23;20327;-66
2022/12/24 10:08:28;;;;;;;66.30;41.33;;;9.10;99.90;;;;;;6215593;23;20380;-66
2022/12/24 10:10:55;;;;;;;59.13;40.37;;;;;;;;;;6215736;23;20000;-66
2022/12/24 10:13:35;;;;;;;61.17;39.70;;;;;;;;;;6215137;23;20003;-66
2022/12/24 10:16:20;;;;;;;66.30;42.77;;;;;;;;;;6214738;23;20000;-68
2022/12/24 10:19:05;;;;;;;70.67;42.20;;;;;;;;;;6215408;23;20326;-66
2022/12/24 10:21:32;;;;;;;67.40;42.43;;;;;;;;;;6211186;23;20335;-66
2022/12/24 10:24:03;;;;;;;61.23;40.30;;;;;;;;;;6214680;23;20391;-66
2022/12/24 10:26:49;;;;;;;70.07;42.03;;;;;;;;;;6215424;23;20077;-66
2022/12/24 10:29:17;;;;;;;65.90;40.80;;;;;;;;;;6215386;23;20024;-66
2022/12/24 10:32:19;;;;;;;62.03;41.27;;;;;;;;;;6215252;23;20032;-66
2022/12/24 10:34:49;;;;;;;62.50;40.67;;;;;;;;;;6094750;23;20536;-66
2022/12/24 10:37:17;;;;;;;73.00;43.30;;;;;;;;;;6195194;23;20005;-66
2022/12/24 10:39:43;;;;;;;74.50;43.33;;;;;;;;;;6216069;23;20342;-67
2022/12/24 10:42:11;;;;;;;67.60;43.13;;;;;;;;;;6213874;23;20096;-67
2022/12/24 10:44:37;;;;;;;67.60;42.83;;;;;;;;;;6215968;23;20050;-67
2022/12/24 10:47:04;;;;;;;71.80;46.10;;;;;;;;;;6214260;23;20005;-66
2022/12/24 10:49:33;;;;;;;72.30;44.03;;;;;;;;;;6215807;23;20004;-66
2022/12/24 10:52:04;;;;;;;61.13;42.03;;;;;;;;;;6215464;23;20028;-66
2022/12/24 10:54:37;;;;;;;65.03;40.77;;;;;;;;;;6215605;23;20004;-66
2022/12/24 10:57:04;;;;;;;57.58;38.20;;;;;;;;;;6213824;23;20012;-66
2022/12/24 10:59:40;;;;;;;64.83;40.80;;;;;;;;;;6215542;23;20009;-66
2022/12/24 11:02:25;;;;;;;59.27;39.90;;;;;;;;;;6215388;23;20008;-66
2022/12/24 11:04:52;;;;;;;64.23;40.97;;;;;;;;;;6215446;23;20008;-66
2022/12/24 11:07:19;;;;;;;59.60;39.67;;;;;;;;;;6214839;23;20080;-66
2022/12/24 11:09:54;;;;;;;61.10;39.30;;;;;;;;;;6215991;23;20059;-67
2022/12/24 11:12:22;;;;;;;54.60;36.97;;;;;;;;;;6215921;23;19996;-68
2022/12/24 11:14:58;;;;;;;58.90;38.03;;;;;;;;;;6215898;23;20001;-66
2022/12/24 11:17:27;;;;;;;58.42;36.97;;;;;;;;;;6215740;23;20024;-66
2022/12/24 11:23:25;;;;;;;54.03;36.53;;;;;;;;;;6094030;23;20018;-66
2022/12/24 11:26:19;;;;;;;58.83;37.40;;;9.10;99.90;;;;;;6094535;23;20467;-68
2022/12/24 11:35:50;;;;;;;55.13;35.60;;;9.70;99.90;;;;;;6008307;23;20007;-68
2022/12/24 11:39:02;;;;;;;57.27;37.60;;;9.90;99.90;;;;;;6007664;23;20008;-68
2022/12/24 11:41:36;;;;;;;57.77;37.87;;;9.90;99.90;;;;;;6007463;23;20023;-68
2022/12/24 11:44:14;;;;;;;58.95;37.08;;;9.90;99.90;;;;;;6007090;23;20059;-68
2022/12/24 11:47:05;;;;;;;59.10;38.00;;;9.90;99.90;;;;;;6007248;23;20019;-69
2022/12/24 11:49:31;;;;;;;62.40;38.58;;;9.90;99.90;;;;;;6007496;23;20012;-69
2022/12/24 11:52:09;;;;;;;61.37;37.83;;;9.90;99.90;;;;;;6028074;23;20317;-68
2022/12/24 11:54:57;;;;;;;64.32;38.40;;;9.90;99.90;;;;;;6215398;23;20318;-68
2022/12/24 11:57:31;;;;;;;58.90;39.93;;;9.90;99.90;;;;;;6215067;23;20380;-67
2022/12/24 11:59:57;;;;;;;59.67;39.65;;;10.00;99.90;;;;;;6214609;23;20012;-66
2022/12/24 12:02:35;;;;;;;57.63;39.63;;;10.00;99.90;;;;;;6214377;23;20079;-66
2022/12/24 12:05:10;;;;;;;57.35;39.88;;;10.00;99.90;;;;;;6214289;23;20004;-68
2022/12/24 12:07:37;;;;;;;62.58;40.60;;;10.00;99.90;;;;;;6214079;23;20013;-68
2022/12/24 12:10:15;;;;;;;57.30;40.30;;;10.00;99.90;;;;;;6214618;23;20000;-68
2022/12/24 12:13:02;;;;;;;57.42;39.45;;;10.10;99.90;;;;;;6213993;23;20447;-68
2022/12/24 12:15:50;;;;;;;57.58;37.90;;;10.10;99.90;;;;;;6213517;23;20019;-68
2022/12/24 12:18:26;;;;;;;54.15;37.25;;;10.20;99.90;;;;;;6214932;23;20426;-68
2022/12/24 12:20:59;;;;;;;55.72;37.83;;;10.20;99.90;;;;;;6214209;23;20013;-68
2022/12/24 12:23:31;;;;;;;53.15;35.95;;;10.20;99.90;;;;;;6214627;23;20530;-67
2022/12/24 12:26:17;;;;;;;53.83;36.80;;;10.30;99.90;;;;;;6214960;23;20442;-68
2022/12/24 12:28:50;;;;;;;51.15;36.25;;;10.30;99.90;;;;;;6195323;23;20526;-65
2022/12/24 12:31:34;;;;;;;52.63;36.30;;;10.30;99.90;;;;;;6216465;23;20008;-66
2022/12/24 12:34:05;;;;;;;55.05;36.83;;;10.30;99.90;;;;;;6216820;23;20001;-68
2022/12/24 12:36:41;;;;;;;54.00;38.63;;;10.20;99.90;;;;;;6216808;23;20004;-67
2022/12/24 12:39:09;;;;;;;58.67;42.07;;;10.30;99.90;;;;;;6216235;23;20015;-68
2022/12/24 12:41:45;;;;;;;60.67;40.13;;;10.30;99.90;;;;;;6216630;23;20300;-68
2022/12/24 12:44:40;;;;;;;60.35;41.50;;;10.20;99.90;;;;;;6216470;23;20063;-66
2022/12/24 12:47:38;;;;;;;61.45;41.00;;;10.30;99.90;;;;;;6216020;23;20050;-68
2022/12/24 12:50:32;;;;;;;57.67;38.50;;;10.30;99.90;;;;;;6216011;23;20007;-68
2022/12/24 12:53:13;;;;;;;58.13;39.67;;;10.30;99.90;;;;;;6216984;23;20388;-67
2022/12/24 12:56:00;;;;;;;55.20;38.10;;;10.30;99.90;;;;;;6217088;23;20364;-65
2022/12/24 12:58:35;;;;;;;51.58;35.13;;;10.40;99.90;;;;;;6217303;23;20024;-67
2022/12/24 13:01:25;;;;;;;50.53;36.15;;;10.40;99.90;;;;;;6216888;23;20012;-68
2022/12/24 13:04:32;;;;;;;;;;;;;;;;;;;;;
2022/12/24 13:22:13;;;;;;;;;;;;;;;;;;;;;
2022/12/24 13:32:08;;;;;;;;;;;;;;;;;;;;;
2022/12/24 13:34:40;;;;;;;60.60;41.15;;;10.40;99.90;;;;;;6153509;23;20092;-67
2022/12/24 13:37:31;;;;;;;59.67;39.67;;;10.40;99.90;;;;;;6153908;23;20376;-67
2022/12/24 13:40:05;;;;;;;57.20;39.13;;;10.40;99.90;;;;;;6203916;23;20334;-67
2022/12/24 13:43:03;;;;;;;50.38;36.33;;;10.40;99.90;;;;;;6214769;23;20395;-65
2022/12/24 13:45:29;;;;;;;55.72;37.85;;;10.40;99.90;;;;;;6216070;23;20020;-67
2022/12/24 13:48:06;;;;;;;57.17;38.20;;;10.40;99.90;;;;;;6216186;23;20008;-67
2022/12/24 13:50:40;;;;;;;49.13;35.78;;;10.40;99.90;;;;;;6216124;23;20004;-68
2022/12/24 13:53:21;;;;;;;53.63;36.88;;;10.40;99.90;;;;;;6216310;23;20391;-65
2022/12/24 13:55:57;;;;;;;61.83;43.50;;;10.40;99.90;;;;;;6216409;23;20429;-65
2022/12/24 13:58:24;;;;;;;63.22;41.08;;;10.40;99.90;;;;;;6216395;23;20088;-68
2022/12/24 14:01:04;;;;;;;54.33;37.38;;;10.40;99.90;;;;;;6216315;23;21124;-68
2022/12/24 14:03:44;;;;;;;52.13;35.97;;;10.40;99.90;;;;;;6215852;23;20434;-68
2022/12/24 14:06:19;;;;;;;52.55;35.60;;;10.40;99.90;;;;;;6216127;23;20005;-67
2022/12/24 14:08:48;;;;;;;48.13;34.63;;;10.40;99.90;;;;;;6215726;23;20075;-65
2022/12/24 14:11:21;;;;;;;50.33;33.25;;;10.40;99.90;;;;;;6215736;23;20079;-65
2022/12/24 14:13:47;;;;;;;53.00;36.63;;;10.40;99.90;;;;;;6215994;23;20082;-65
2022/12/24 14:16:29;;;;;;;54.08;36.60;;;10.40;99.90;;;;;;6215946;23;20004;-65
2022/12/24 14:19:02;;;;;;;53.55;36.20;;;10.30;99.90;;;;;;6215740;23;20338;-68
2022/12/24 14:21:33;;;;;;;53.90;36.47;;;10.30;99.90;;;;;;6215896;23;20005;-68
2022/12/24 14:24:02;;;;;;;53.30;36.17;;;10.30;99.90;;;;;;6215824;23;20001;-68
2022/12/24 14:26:32;;;;;;;52.40;34.85;;;10.30;99.90;;;;;;6216326;23;20004;-68
2022/12/24 14:29:15;;;;;;;51.60;34.50;;;10.30;99.90;;;;;;6216078;23;20005;-65
2022/12/24 14:31:55;;;;;;;50.00;32.78;;;10.30;99.90;;;;;;6215318;23;20001;-65
2022/12/24 14:34:21;;;;;;;44.20;32.80;;;10.30;99.90;;;;;;6215624;23;20001;-68
2022/12/24 14:36:49;;;;;;;50.80;34.63;;;10.30;99.90;;;;;;6215703;23;20008;-68
2022/12/24 14:39:41;;;;;;;51.60;33.00;;;10.30;99.90;;;;;;6215347;23;20012;-67
2022/12/24 14:42:28;;;;;;;43.70;31.17;;;10.30;99.90;;;;;;6201676;23;20005;-68
2022/12/24 14:45:21;;;;;;;47.50;30.83;;;10.30;99.90;;;;;;6216197;23;20391;-67
2022/12/24 14:48:09;;;;;;;42.80;28.48;;;10.20;99.90;;;;;;6216408;23;20031;-65
2022/12/24 14:50:39;;;;;;;42.05;28.60;;;10.30;99.90;;;;;;6215689;23;20000;-67
2022/12/24 15:14:19;;;;;;;120.47;78.43;;;10.10;99.90;;;;;;5950151;24;20032;-67
2022/12/24 15:21:01;;;;;;;;;;;;;;;;;;;;;
2022/12/24 15:23:34;;;;;;;79.03;50.93;;;10.10;99.90;;;;;;5938133;24;20091;-68
2022/12/24 15:26:26;;;;;;;65.47;41.08;;;10.10;99.90;;;;;;6097862;23;20085;-68
2022/12/24 15:28:54;;;;;;;60.75;37.67;;;10.00;99.90;;;;;;6215124;23;20005;-68
2022/12/24 15:31:23;;;;;;;59.23;37.90;;;10.10;99.90;;;;;;6215582;23;20362;-68
2022/12/24 15:33:51;;;;;;;58.97;35.80;;;10.10;99.90;;;;;;6215294;23;20370;-67
2022/12/24 15:36:28;;;;;;;50.97;35.25;;;10.10;99.90;;;;;;6215442;23;20343;-68
2022/12/24 15:38:58;;;;;;;59.28;33.83;;;10.10;99.90;;;;;;6215149;23;20107;-68
2022/12/24 15:44:34;;;;;;;48.15;31.02;;;10.10;99.90;;;;;;6215278;23;20401;-65
2022/12/24 15:47:01;;;;;;;44.78;30.67;;;10.00;99.90;;;;;;6214748;23;20072;-67
2022/12/24 15:49:30;;;;;;;48.17;31.73;;;10.00;99.90;;;;;;6214274;23;20001;-67
2022/12/24 15:52:09;;;;;;;45.97;30.67;;;10.00;99.90;;;;;;6214493;23;20483;-68
2022/12/24 15:54:35;;;;;;;57.03;32.53;;;10.00;99.90;;;;;;6213997;23;20011;-69
2022/12/24 15:57:23;;;;;;;48.85;31.13;;;10.00;99.90;;;;;;6211542;23;20752;-68
2022/12/24 15:59:56;;;;;;;49.33;31.05;;;10.00;99.90;;;;;;6211549;23;20466;-66
2022/12/24 16:02:34;;;;;;;55.50;31.73;;;10.00;99.90;;;;;;6215508;23;20456;-69
2022/12/24 16:05:27;;;;;;;47.63;30.83;;;10.00;99.90;;;;;;6216110;23;20009;-67
2022/12/24 16:08:31;;;;;;;43.72;30.45;;;10.00;99.90;;;;;;6217521;23;20051;-68
2022/12/24 16:11:12;;;;;;;52.40;35.67;;;10.00;99.90;;;;;;6141482;23;20441;-68
2022/12/24 16:13:41;;;;;;;48.88;33.38;;;10.00;99.90;;;;;;6216864;23;20412;-67
2022/12/24 16:16:14;;;;;;;51.03;33.40;;;10.00;99.90;;;;;;6216860;23;20029;-66
2022/12/24 16:19:07;;;;;;;47.70;33.05;;;10.00;99.90;;;;;;6217153;23;20012;-69
2022/12/24 16:21:41;;;;;;;57.20;36.50;;;9.90;99.90;;;;;;6206675;23;20012;-69
2022/12/24 16:24:21;;;;;;;56.65;36.67;;;10.00;99.90;;;;;;6214086;23;19997;-69
2022/12/24 16:26:47;;;;;;;50.60;36.33;;;10.00;99.90;;;;;;6215783;23;20092;-69
2022/12/24 16:29:14;;;;;;;54.47;35.33;;;10.00;99.90;;;;;;6217573;23;20004;-69
2022/12/24 16:32:20;;;;;;;51.23;35.40;;;10.00;99.90;;;;;;6217801;23;20127;-66
2022/12/24 16:34:48;;;;;;;53.25;35.25;;;10.00;99.90;;;;;;6216709;23;19997;-68
2022/12/24 16:37:27;;;;;;;;;;;;;;;;;;;;;
2022/12/24 16:59:40;;;;;;;59.33;40.75;;;9.90;99.90;;;;;;6216823;23;20027;-69
2022/12/24 17:03:22;;;;;;;58.35;40.85;;;9.90;99.90;;;;;;6217005;23;20001;-69
2022/12/24 17:05:48;;;;;;;63.47;42.67;;;9.90;99.90;;;;;;6008259;23;20083;-69
2022/12/24 17:08:14;;;;;;;57.80;41.63;;;9.90;99.90;;;;;;6040536;23;20007;-69
2022/12/24 17:10:49;;;;;;;62.53;42.40;;;9.90;99.90;;;;;;6216827;23;20308;-66
2022/12/24 17:13:15;;;;;;;61.92;42.35;;;9.90;99.90;;;;;;6216290;23;20343;-67
2022/12/24 17:15:41;;;;;;;63.60;42.13;;;9.90;99.90;;;;;;6216555;23;20007;-66
2022/12/24 17:18:07;;;;;;;62.50;43.77;;;9.90;99.90;;;;;;6216657;23;20004;-69
2022/12/24 17:20:33;;;;;;;65.32;43.30;;;9.90;99.90;;;;;;6216013;23;20016;-69
2022/12/24 17:22:59;;;;;;;62.85;42.97;;;9.90;99.90;;;;;;6216442;23;19996;-69
2022/12/24 17:25:24;;;;;;;65.53;42.45;;;9.90;99.90;;;;;;6216840;23;20339;-69
2022/12/24 17:27:50;;;;;;;61.53;41.13;;;9.90;99.90;;;;;;6189451;23;20007;-69